createdAt,value
2023-01-03T00:00:43.350Z,101850.84
2023-01-03T00:03:14.178Z,101788.94
2023-01-03T00:05:42.593Z,101758.31
2023-01-03T00:08:09.090Z,101665.06
2023-01-03T00:10:35.580Z,101897.84
2023-01-03T00:13:02.005Z,101853.34
2023-01-03T00:15:28.389Z,101830.72
2023-01-03T00:17:56.096Z,101882.16
2023-01-03T00:20:22.800Z,101874.34
2023-01-03T00:22:49.259Z,101778.38
2023-01-03T00:25:15.669Z,101739.88
2023-01-03T00:27:42.140Z,101755.56
2023-01-03T00:30:08.830Z,101837.66
2023-01-03T00:32:35.223Z,101870.78
2023-01-03T00:35:08.179Z,101906.53
2023-01-03T00:37:34.521Z,101799.19
2023-01-03T00:40:01.089Z,101902.03
2023-01-03T00:42:27.471Z,101900.28
2023-01-03T00:44:53.786Z,101889.81
2023-01-03T00:47:20.216Z,101888.09
2023-01-03T00:49:46.572Z,101896.81
2023-01-03T00:52:12.909Z,101765.06
2023-01-03T00:54:39.229Z,101861.94
2023-01-03T00:57:05.591Z,101743.13
2023-01-03T00:59:31.977Z,101919.38
2023-01-03T01:01:58.629Z,101765.00
2023-01-03T01:04:30.949Z,101866.97
2023-01-03T01:07:00.132Z,101919.22
2023-01-03T01:09:32.175Z,101915.88
2023-01-03T01:11:58.722Z,101916.78
2023-01-03T01:14:27.377Z,101936.72
2023-01-03T01:17:06.251Z,101938.50
2023-01-03T01:19:35.206Z,101924.47
2023-01-03T01:22:02.083Z,101926.22
2023-01-03T01:24:28.521Z,101931.34
2023-01-03T01:26:54.953Z,101922.69
2023-01-03T01:29:21.683Z,101943.53
2023-01-03T01:31:48.727Z,101959.22
2023-01-03T01:34:16.526Z,101966.19
2023-01-03T01:36:44.268Z,101959.25
2023-01-03T01:39:14.796Z,101920.59
2023-01-03T01:42:00.348Z,101969.59
2023-01-03T01:45:01.697Z,101973.97
2023-01-03T01:47:43.688Z,101977.44
2023-01-03T01:50:21.867Z,101978.22
2023-01-03T01:52:55.660Z,101983.47
2023-01-03T01:55:28.197Z,101854.09
2023-01-03T01:57:54.961Z,101971.06
2023-01-03T02:00:21.868Z,101996.44
2023-01-03T02:02:51.667Z,101992.13
2023-01-03T02:05:20.018Z,101995.56
2023-01-03T02:07:51.382Z,101997.22
2023-01-03T02:10:24.132Z,101982.41
2023-01-03T02:13:05.579Z,101979.66
2023-01-03T02:15:42.039Z,101947.28
2023-01-03T02:18:17.736Z,101838.09
2023-01-03T02:20:49.818Z,101993.63
2023-01-03T02:23:41.178Z,102005.78
2023-01-03T02:26:21.887Z,102000.75
2023-01-03T02:29:20.640Z,101983.19
2023-01-03T02:32:01.563Z,101926.34
2023-01-03T02:34:34.586Z,102001.47
2023-01-03T02:37:30.783Z,102000.56
2023-01-03T02:40:10.928Z,101984.69
2023-01-03T02:43:05.679Z,102005.75
2023-01-03T02:45:57.850Z,101992.75
2023-01-03T02:49:03.069Z,101997.97
2023-01-03T02:51:36.048Z,101997.06
2023-01-03T02:54:05.359Z,101968.84
2023-01-03T02:56:38.249Z,101988.09
2023-01-03T02:59:12.105Z,101972.38
2023-01-03T03:01:44.794Z,101871.94
2023-01-03T03:04:13.513Z,101999.63
2023-01-03T03:06:49.544Z,102004.00
2023-01-03T03:09:16.008Z,101997.00
2023-01-03T03:12:02.942Z,101932.28
2023-01-03T03:14:40.094Z,102007.38
2023-01-03T03:17:11.127Z,101977.56
2023-01-03T03:19:59.574Z,102013.38
2023-01-03T03:23:04.454Z,101972.34
2023-01-03T03:25:52.021Z,101937.38
2023-01-03T03:28:36.555Z,101952.13
2023-01-03T03:31:02.965Z,102003.72
2023-01-03T03:33:33.581Z,101989.69
2023-01-03T03:36:06.435Z,101987.19
2023-01-03T03:38:43.463Z,101881.59
2023-01-03T03:41:46.879Z,101981.16
2023-01-03T03:44:50.105Z,101994.22
2023-01-03T03:47:42.657Z,101991.44
2023-01-03T03:50:28.878Z,101895.97
2023-01-03T03:53:00.084Z,101999.06
2023-01-03T03:55:37.529Z,101936.88
2023-01-03T03:58:09.600Z,101902.66
2023-01-03T04:00:39.481Z,102011.19
2023-01-03T04:03:09.071Z,102005.00
2023-01-03T04:05:39.807Z,101977.16
2023-01-03T04:08:06.354Z,101860.16
2023-01-03T04:10:37.478Z,101963.25
2023-01-03T04:13:04.543Z,101981.69
2023-01-03T04:15:30.870Z,101979.28
2023-01-03T04:17:57.327Z,101886.59
2023-01-03T04:20:23.737Z,101898.78
2023-01-03T04:22:50.151Z,101981.03
2023-01-03T04:25:16.750Z,101895.31
2023-01-03T04:27:43.116Z,101783.66
2023-01-03T04:30:11.330Z,101967.09
2023-01-03T04:32:38.064Z,101888.44
2023-01-03T04:35:04.910Z,101963.63
2023-01-03T04:37:31.498Z,101977.56
2023-01-03T04:39:57.934Z,101995.91
2023-01-03T04:42:42.886Z,101988.84
2023-01-03T04:45:10.135Z,101975.06
2023-01-03T04:47:36.499Z,101973.19
2023-01-03T04:50:03.555Z,101943.66
2023-01-03T04:52:30.082Z,101981.03
2023-01-03T04:54:56.422Z,101989.06
2023-01-03T04:57:22.767Z,101979.50
2023-01-03T04:59:49.088Z,101982.00
2023-01-03T05:02:15.784Z,101978.50
2023-01-03T05:04:42.386Z,101972.28
2023-01-03T05:07:09.043Z,101971.50
2023-01-03T05:09:35.551Z,101979.31
2023-01-03T05:12:02.051Z,101960.09
2023-01-03T05:14:28.454Z,101878.69
2023-01-03T05:16:55.021Z,101986.19
2023-01-03T05:19:21.427Z,101944.28
2023-01-03T05:22:06.376Z,101849.78
2023-01-03T05:24:51.065Z,101920.50
2023-01-03T05:27:17.636Z,101955.31
2023-01-03T05:29:44.267Z,101977.13
2023-01-03T05:32:10.800Z,101848.63
2023-01-03T05:34:37.249Z,101831.91
2023-01-03T05:37:03.634Z,101973.53
2023-01-03T05:39:29.990Z,101900.91
2023-01-03T05:41:59.344Z,101974.25
2023-01-03T05:44:30.572Z,101985.53
2023-01-03T05:46:58.185Z,101926.75
2023-01-03T05:49:24.988Z,102003.03
2023-01-03T05:51:51.590Z,101962.69
2023-01-03T05:54:20.198Z,101910.19
2023-01-03T05:56:47.497Z,101897.31
2023-01-03T05:59:13.958Z,101733.94
2023-01-03T06:01:40.559Z,101947.22
2023-01-03T06:04:07.265Z,101996.28
2023-01-03T06:06:34.014Z,101937.69
2023-01-03T06:09:00.372Z,101985.84
2023-01-03T06:11:26.925Z,101860.91
2023-01-03T06:13:53.325Z,101860.03
2023-01-03T06:16:38.997Z,101987.75
2023-01-03T06:19:07.402Z,102002.59
2023-01-03T06:21:34.274Z,101994.69
2023-01-03T06:24:00.684Z,101869.91
2023-01-03T06:26:27.131Z,101970.53
2023-01-03T06:28:53.584Z,101793.97
2023-01-03T06:31:20.131Z,101960.19
2023-01-03T06:33:47.062Z,101965.38
2023-01-03T06:36:16.005Z,101954.97
2023-01-03T06:38:42.513Z,101937.56
2023-01-03T06:41:09.524Z,101972.41
2023-01-03T06:43:35.905Z,101979.31
2023-01-03T06:46:28.604Z,101877.97
2023-01-03T06:49:13.450Z,101918.88
2023-01-03T06:51:58.599Z,101973.88
2023-01-03T06:54:27.925Z,101900.41
2023-01-03T06:56:54.755Z,101957.34
2023-01-03T06:59:22.363Z,101751.13
2023-01-03T07:01:51.070Z,101862.16
2023-01-03T07:04:18.456Z,101986.09
2023-01-03T07:06:45.254Z,101933.69
2023-01-03T07:09:12.660Z,101926.75
2023-01-03T07:11:40.221Z,101945.91
2023-01-03T07:14:08.417Z,101967.66
2023-01-03T07:16:43.167Z,101969.34
2023-01-03T07:19:13.385Z,101968.50
2023-01-03T07:21:40.287Z,101929.13
2023-01-03T07:24:07.239Z,101911.63
2023-01-03T07:26:35.079Z,101875.03
2023-01-03T07:29:03.509Z,101982.63
2023-01-03T07:31:32.514Z,101911.75
2023-01-03T07:33:59.990Z,101999.13
2023-01-03T07:36:26.774Z,101979.88
2023-01-03T07:38:54.923Z,101953.81
2023-01-03T07:41:21.406Z,101976.50
2023-01-03T07:43:49.075Z,101920.81
2023-01-03T07:46:16.843Z,101989.94
2023-01-03T07:48:44.929Z,101914.81
2023-01-03T07:51:13.870Z,101990.06
2023-01-03T07:53:40.846Z,101822.19
2023-01-03T07:56:13.294Z,101938.34
2023-01-03T07:58:42.634Z,101976.75
2023-01-03T08:01:10.163Z,101977.59
2023-01-03T08:03:37.643Z,101971.47
2023-01-03T08:06:07.147Z,101996.00
2023-01-03T08:08:33.527Z,101980.19
2023-01-03T08:11:19.254Z,101860.44
2023-01-03T08:13:45.971Z,101969.63
2023-01-03T08:16:15.140Z,102016.88
2023-01-03T08:18:42.521Z,101985.47
2023-01-03T08:21:11.266Z,101923.31
2023-01-03T08:23:37.865Z,101982.78
2023-01-03T08:26:15.293Z,102015.16
2023-01-03T08:28:43.331Z,101911.13
2023-01-03T08:31:12.923Z,101920.03
2023-01-03T08:34:05.466Z,101977.59
2023-01-03T08:36:41.103Z,102008.25
2023-01-03T08:39:12.192Z,102016.13
2023-01-03T08:41:41.902Z,101985.66
2023-01-03T08:44:10.037Z,101881.78
2023-01-03T08:46:42.113Z,102017.34
2023-01-03T08:49:09.824Z,101946.44
2023-01-03T08:51:36.244Z,102073.16
2023-01-03T08:54:02.670Z,101933.38
2023-01-03T08:56:29.147Z,101999.03
2023-01-03T08:58:57.672Z,101934.41
2023-01-03T09:01:25.587Z,102038.47
2023-01-03T09:03:52.404Z,101882.97
2023-01-03T09:06:19.491Z,102021.81
2023-01-03T09:08:46.070Z,101951.91
2023-01-03T09:11:12.440Z,102032.41
2023-01-03T09:13:38.861Z,102022.69
2023-01-03T09:16:08.217Z,102015.78
2023-01-03T09:18:36.661Z,102049.81
2023-01-03T09:21:03.710Z,102025.38
2023-01-03T09:23:32.947Z,101999.16
2023-01-03T09:25:59.464Z,101880.28
2023-01-03T09:28:26.213Z,102035.81
2023-01-03T09:30:53.263Z,102058.69
2023-01-03T09:33:19.861Z,101816.03
2023-01-03T09:35:46.333Z,102049.38
2023-01-03T09:38:12.918Z,102024.00
2023-01-03T09:40:42.011Z,101983.03
2023-01-03T09:43:21.404Z,101978.69
2023-01-03T09:45:58.229Z,101870.41
2023-01-03T09:48:36.111Z,102022.25
2023-01-03T09:51:19.566Z,102043.31
2023-01-03T09:54:05.690Z,102045.16
2023-01-03T09:56:50.882Z,102054.69
2023-01-03T09:59:37.086Z,102044.34
2023-01-03T10:02:40.982Z,102059.28
2023-01-03T10:05:33.606Z,102057.59
2023-01-03T10:08:09.096Z,102061.13
2023-01-03T10:11:10.463Z,102073.28
2023-01-03T10:14:07.878Z,102064.59
2023-01-03T10:17:00.686Z,102065.53
2023-01-03T10:19:42.043Z,102068.09
2023-01-03T10:22:21.551Z,102052.41
2023-01-03T10:24:55.735Z,102076.88
2023-01-03T10:27:26.278Z,102069.03
2023-01-03T10:29:58.055Z,101963.31
2023-01-03T10:32:41.678Z,102058.56
2023-01-03T10:35:17.233Z,102045.50
2023-01-03T10:37:45.078Z,102054.25
2023-01-03T10:40:13.011Z,102007.91
2023-01-03T10:42:41.259Z,102031.50
2023-01-03T10:45:17.887Z,102038.41
2023-01-03T10:47:44.774Z,101934.53
2023-01-03T10:50:23.723Z,102048.97
2023-01-03T10:52:59.805Z,101959.88
2023-01-03T10:55:27.412Z,102048.09
2023-01-03T10:58:02.395Z,102047.22
2023-01-03T11:00:30.719Z,101877.88
2023-01-03T11:03:10.106Z,102028.06
2023-01-03T11:05:40.636Z,102035.88
2023-01-03T11:08:16.671Z,101858.75
2023-01-03T11:11:01.438Z,101907.69
2023-01-03T11:13:38.400Z,102035.94
2023-01-03T11:16:14.342Z,102038.53
2023-01-03T11:18:42.749Z,102028.06
2023-01-03T11:21:27.130Z,102036.81
2023-01-03T11:24:25.975Z,102031.56
2023-01-03T11:27:04.143Z,102024.59
2023-01-03T11:29:54.309Z,102029.81
2023-01-03T11:32:29.759Z,102033.28
2023-01-03T11:35:33.746Z,102028.03
2023-01-03T11:38:21.946Z,102022.84
2023-01-03T11:40:48.205Z,102020.22
2023-01-03T11:43:52.175Z,102019.34
2023-01-03T11:46:54.248Z,102004.50
2023-01-03T11:49:40.215Z,101991.44
2023-01-03T11:52:28.480Z,102022.84
2023-01-03T11:55:03.832Z,102023.72
2023-01-03T11:57:44.163Z,102015.84
2023-01-03T12:00:25.787Z,102015.81
2023-01-03T12:03:09.588Z,101966.09
2023-01-03T12:05:46.221Z,102009.75
2023-01-03T12:08:12.590Z,101966.13
2023-01-03T12:10:57.659Z,101994.91
2023-01-03T12:13:35.837Z,101904.22
2023-01-03T12:16:23.321Z,101844.91
2023-01-03T12:19:11.713Z,101987.06
2023-01-03T12:21:44.034Z,101980.94
2023-01-03T12:24:28.602Z,101987.94
2023-01-03T12:26:56.746Z,101979.19
2023-01-03T12:29:31.618Z,101842.34
2023-01-03T12:32:06.647Z,101984.44
2023-01-03T12:34:49.756Z,101858.88
2023-01-03T12:37:24.170Z,101980.94
2023-01-03T12:39:56.423Z,101947.81
2023-01-03T12:42:48.464Z,101888.53
2023-01-03T12:45:39.474Z,101987.94
2023-01-03T12:48:29.103Z,101963.53
2023-01-03T12:50:56.054Z,101845.81
2023-01-03T12:53:27.155Z,101943.44
2023-01-03T12:56:24.424Z,101975.66
2023-01-03T12:59:01.271Z,101949.53
2023-01-03T13:01:34.255Z,101942.59
2023-01-03T13:04:10.597Z,101946.03
2023-01-03T13:06:46.559Z,101869.34
2023-01-03T13:09:27.003Z,101903.34
2023-01-03T13:11:56.101Z,101883.28
2023-01-03T13:14:28.243Z,101938.22
2023-01-03T13:16:56.748Z,101962.59
2023-01-03T13:19:23.109Z,101935.56
2023-01-03T13:21:52.543Z,101970.41
2023-01-03T13:24:45.173Z,101963.47
2023-01-03T13:27:17.673Z,101964.34
2023-01-03T13:29:45.542Z,101958.25
2023-01-03T13:32:22.769Z,101963.50
2023-01-03T13:34:58.373Z,101955.59
2023-01-03T13:37:29.187Z,101954.75
2023-01-03T13:40:01.595Z,101864.09
2023-01-03T13:42:38.078Z,101953.00
2023-01-03T13:45:17.574Z,101956.50
2023-01-03T13:47:47.382Z,101884.97
2023-01-03T13:50:33.725Z,101892.00
2023-01-03T13:53:03.510Z,101865.84
2023-01-03T13:55:37.245Z,101953.03
2023-01-03T13:58:37.265Z,101762.13
2023-01-03T14:01:16.908Z,101934.69
2023-01-03T14:03:53.040Z,101959.16
2023-01-03T14:06:38.277Z,101956.50
2023-01-03T14:09:49.167Z,101948.63
2023-01-03T14:12:54.678Z,101907.63
2023-01-03T14:15:26.772Z,101961.69
2023-01-03T14:18:01.980Z,101855.34
2023-01-03T14:20:33.873Z,101920.66
2023-01-03T14:23:31.313Z,101948.56
2023-01-03T14:25:52.420Z,101851.00
2023-01-03T14:28:20.883Z,101951.25
2023-01-03T14:31:05.259Z,101913.78
2023-01-03T14:33:55.073Z,101957.38
2023-01-03T14:36:21.838Z,101956.53
2023-01-03T14:38:52.286Z,101951.28
2023-01-03T14:41:38.879Z,101949.53
2023-01-03T14:44:09.543Z,101810.94
2023-01-03T14:46:37.646Z,101954.75
2023-01-03T14:49:14.068Z,101914.66
2023-01-03T14:51:40.744Z,101844.94
2023-01-03T14:54:07.343Z,101847.56
2023-01-03T14:56:33.860Z,101827.50
2023-01-03T14:59:00.987Z,101941.69
2023-01-03T15:01:28.696Z,101865.84
2023-01-03T15:03:56.038Z,101894.59
2023-01-03T15:06:24.141Z,101965.25
2023-01-03T15:08:54.093Z,101954.78
2023-01-03T15:11:34.673Z,101966.13
2023-01-03T15:14:06.411Z,101958.28
2023-01-03T15:16:39.883Z,101951.28
2023-01-03T15:19:19.637Z,101909.47
2023-01-03T15:21:46.381Z,101866.75
2023-01-03T15:24:18.941Z,101959.13
2023-01-03T15:26:48.605Z,101960.03
2023-01-03T15:29:23.123Z,101918.19
2023-01-03T15:32:00.642Z,101892.03
2023-01-03T15:34:30.333Z,101955.69
2023-01-03T15:37:03.232Z,101934.75
2023-01-03T15:39:50.591Z,101904.19
2023-01-03T15:42:46.790Z,101956.53
2023-01-03T15:45:27.777Z,101925.13
2023-01-03T15:48:00.263Z,101905.06
2023-01-03T15:50:40.224Z,101922.47
2023-01-03T15:53:09.179Z,101921.63
2023-01-03T15:55:35.600Z,101942.53
2023-01-03T15:58:02.030Z,101834.38
2023-01-03T16:00:29.025Z,101919.03
2023-01-03T16:02:55.541Z,101914.59
2023-01-03T16:05:23.718Z,101957.38
2023-01-03T16:07:50.837Z,101838.72
2023-01-03T16:10:17.429Z,101738.50
2023-01-03T16:12:44.216Z,101932.06
2023-01-03T16:15:21.772Z,101843.94
2023-01-03T16:17:50.552Z,101842.19
2023-01-03T16:20:17.828Z,101865.78
2023-01-03T16:22:55.870Z,101949.53
2023-01-03T16:25:25.604Z,101833.50
2023-01-03T16:27:52.065Z,101877.94
2023-01-03T16:30:18.670Z,101839.53
2023-01-03T16:32:45.113Z,101935.50
2023-01-03T16:35:17.148Z,101964.34
2023-01-03T16:37:44.181Z,101936.38
2023-01-03T16:40:20.149Z,101800.34
2023-01-03T16:42:47.274Z,101850.09
2023-01-03T16:45:14.196Z,101959.97
2023-01-03T16:47:43.030Z,101836.88
2023-01-03T16:50:15.878Z,101930.28
2023-01-03T16:52:46.864Z,101914.56
2023-01-03T16:55:20.473Z,101940.75
2023-01-03T16:57:52.069Z,101922.41
2023-01-03T17:00:24.743Z,101940.81
2023-01-03T17:02:53.997Z,101880.50
2023-01-03T17:05:20.710Z,101831.66
2023-01-03T17:07:50.701Z,101776.78
2023-01-03T17:10:29.011Z,101940.72
2023-01-03T17:12:57.782Z,101937.25
2023-01-03T17:15:24.448Z,101944.22
2023-01-03T17:17:50.986Z,101918.91
2023-01-03T17:20:19.319Z,101925.91
2023-01-03T17:22:53.974Z,101928.50
2023-01-03T17:25:22.680Z,101706.22
2023-01-03T17:27:53.154Z,101848.25
2023-01-03T17:30:22.922Z,101933.84
2023-01-03T17:32:49.586Z,101899.75
2023-01-03T17:35:16.650Z,101888.41
2023-01-03T17:38:23.282Z,101789.03
2023-01-03T17:40:34.149Z,101776.84
2023-01-03T17:43:02.055Z,101784.66
2023-01-03T17:45:47.252Z,101744.56
2023-01-03T17:48:32.806Z,101897.16
2023-01-03T17:51:01.313Z,101701.94
2023-01-03T17:53:28.277Z,101830.84
2023-01-03T17:55:54.759Z,101744.59
2023-01-03T17:58:39.878Z,101907.59
2023-01-03T18:01:08.823Z,101745.44
2023-01-03T18:03:36.760Z,101686.19
2023-01-03T18:06:14.365Z,101796.00
2023-01-03T18:08:42.177Z,101817.81
2023-01-03T18:11:15.051Z,101924.19
2023-01-03T18:13:41.609Z,101862.22
2023-01-03T18:16:13.994Z,101904.09
2023-01-03T18:18:40.347Z,101855.25
2023-01-03T18:21:17.354Z,101905.88
2023-01-03T18:23:44.415Z,101871.88
2023-01-03T18:26:16.105Z,101897.19
2023-01-03T18:28:43.514Z,101790.81
2023-01-03T18:31:14.840Z,101782.09
2023-01-03T18:33:41.239Z,101799.47
2023-01-03T18:36:31.110Z,101755.06
2023-01-03T18:39:06.748Z,101852.72
2023-01-03T18:41:34.290Z,101888.47
2023-01-03T18:44:00.863Z,101780.38
2023-01-03T18:46:28.997Z,101885.91
2023-01-03T18:48:55.490Z,101877.97
2023-01-03T18:51:24.917Z,101748.13
2023-01-03T18:53:56.016Z,101730.72
2023-01-03T18:56:35.972Z,101806.56
2023-01-03T18:59:06.580Z,101862.31
2023-01-03T19:01:33.237Z,101773.44
2023-01-03T19:03:59.935Z,101670.66
2023-01-03T19:06:30.774Z,101785.63
2023-01-03T19:09:00.678Z,101820.50
2023-01-03T19:11:33.825Z,101708.97
2023-01-03T19:14:02.388Z,101818.75
2023-01-03T19:16:32.509Z,101721.19
2023-01-03T19:18:59.871Z,101801.34
2023-01-03T19:21:31.843Z,101823.09
2023-01-03T19:24:06.046Z,101822.22
2023-01-03T19:26:34.394Z,101813.53
2023-01-03T19:29:03.856Z,101784.78
2023-01-03T19:31:51.315Z,101804.78
2023-01-03T19:34:20.702Z,101805.69
2023-01-03T19:36:48.371Z,101795.22
2023-01-03T19:39:18.581Z,101809.16
2023-01-03T19:42:08.742Z,101787.38
2023-01-03T19:44:35.349Z,101774.31
2023-01-03T19:47:03.265Z,101672.38
2023-01-03T19:49:30.153Z,101769.94
2023-01-03T19:51:59.380Z,101668.94
2023-01-03T19:54:25.807Z,101775.16
2023-01-03T19:56:57.380Z,101718.53
2023-01-03T19:59:34.828Z,101684.59
2023-01-03T20:02:25.142Z,101791.75
2023-01-03T20:04:52.407Z,101756.03
2023-01-03T20:07:18.832Z,101705.44
2023-01-03T20:09:45.422Z,101695.00
2023-01-03T20:12:21.472Z,101738.59
2023-01-03T20:14:51.310Z,101778.66
2023-01-03T20:17:23.968Z,101715.94
2023-01-03T20:19:51.007Z,101722.94
2023-01-03T20:22:44.988Z,101773.47
2023-01-03T20:25:23.180Z,101691.59
2023-01-03T20:27:50.535Z,101700.31
2023-01-03T20:30:18.936Z,101648.06
2023-01-03T20:32:45.308Z,101665.47
2023-01-03T20:35:56.222Z,101740.31
2023-01-03T20:38:01.161Z,101752.53
2023-01-03T20:40:28.282Z,101724.69
2023-01-03T20:42:55.082Z,101738.63
2023-01-03T20:45:22.238Z,101748.19
2023-01-03T20:47:52.330Z,101749.94
2023-01-03T20:50:22.403Z,101743.84
2023-01-03T20:52:49.225Z,101736.88
2023-01-03T20:55:17.651Z,101683.75
2023-01-03T20:57:44.508Z,101708.13
2023-01-03T21:00:32.174Z,101737.72
2023-01-03T21:02:59.054Z,101628.91
2023-01-03T21:05:26.170Z,101634.16
2023-01-03T21:08:11.221Z,101722.06
2023-01-03T21:10:41.365Z,101672.44
2023-01-03T21:13:09.214Z,101709.03
2023-01-03T21:15:37.109Z,101728.19
2023-01-03T21:18:05.494Z,101698.56
2023-01-03T21:20:32.499Z,101708.13
2023-01-03T21:22:58.952Z,101642.00
2023-01-03T21:25:32.974Z,101704.63
2023-01-03T21:28:00.609Z,101564.56
2023-01-03T21:30:29.869Z,101583.66
2023-01-03T21:32:56.533Z,101692.44
2023-01-03T21:35:24.641Z,101709.00
2023-01-03T21:37:53.353Z,101704.66
2023-01-03T21:40:25.072Z,101690.72
2023-01-03T21:43:03.542Z,101554.09
2023-01-03T21:45:33.909Z,101691.56
2023-01-03T21:48:01.993Z,101679.41
2023-01-03T21:50:29.175Z,101650.69
2023-01-03T21:52:56.239Z,101651.53
2023-01-03T21:55:23.399Z,101638.50
2023-01-03T21:57:50.339Z,101561.06
2023-01-03T22:00:17.835Z,101556.72
2023-01-03T22:03:03.491Z,101633.22
2023-01-03T22:05:30.366Z,101648.94
2023-01-03T22:08:06.554Z,101588.88
2023-01-03T22:10:34.203Z,101646.28
2023-01-03T22:13:03.345Z,101614.97
2023-01-03T22:15:29.824Z,101613.19
2023-01-03T22:17:57.337Z,101640.19
2023-01-03T22:20:25.840Z,101601.88
2023-01-03T22:22:52.858Z,101588.88
2023-01-03T22:25:21.834Z,101640.16
2023-01-03T22:27:48.390Z,101653.22
2023-01-03T22:30:17.600Z,101650.59
2023-01-03T22:32:44.972Z,101574.94
2023-01-03T22:35:13.404Z,101600.16
2023-01-03T22:37:39.859Z,101594.91
2023-01-03T22:40:07.976Z,101626.25
2023-01-03T22:42:34.466Z,101595.75
2023-01-03T22:45:00.804Z,101627.97
2023-01-03T22:47:28.063Z,101502.69
2023-01-03T22:49:54.464Z,101499.28
2023-01-03T22:52:20.827Z,101594.91
2023-01-03T22:54:47.181Z,101554.03
2023-01-03T22:57:14.018Z,101597.50
2023-01-03T22:59:40.343Z,101591.38
2023-01-03T23:02:06.953Z,101604.44
2023-01-03T23:04:33.449Z,101534.88
2023-01-03T23:06:59.810Z,101536.59
2023-01-03T23:09:26.237Z,101570.50
2023-01-03T23:12:10.997Z,101519.09
2023-01-03T23:14:37.510Z,101525.22
2023-01-03T23:17:22.512Z,101539.16
2023-01-03T23:19:48.876Z,101533.94
2023-01-03T23:22:15.956Z,101482.63
2023-01-03T23:24:42.311Z,101551.22
2023-01-03T23:27:08.679Z,101555.53
2023-01-03T23:29:34.995Z,101517.34
2023-01-03T23:32:01.365Z,101492.06
2023-01-03T23:34:27.711Z,101404.31
2023-01-03T23:36:54.050Z,101509.47
2023-01-03T23:39:20.536Z,101382.59
2023-01-03T23:41:47.206Z,101510.22
2023-01-03T23:44:14.084Z,101510.25
2023-01-03T23:46:41.139Z,101491.13
2023-01-03T23:49:07.560Z,101367.69
2023-01-03T23:51:33.896Z,101451.13
2023-01-03T23:54:00.218Z,101462.44
2023-01-03T23:56:26.546Z,101478.84
2023-01-03T23:58:53.069Z,101460.59
